createdAt,value
2023-04-30T00:01:58.910Z,15.80
2023-04-30T00:04:28.031Z,17.10
2023-04-30T00:06:56.574Z,15.90
2023-04-30T00:09:24.480Z,16.10
2023-04-30T00:11:52.563Z,15.40
2023-04-30T00:14:20.911Z,15.80
2023-04-30T00:16:49.090Z,15.20
2023-04-30T00:19:17.216Z,15.30
2023-04-30T00:21:45.148Z,15.00
2023-04-30T00:24:13.059Z,16.90
2023-04-30T00:26:42.774Z,16.50
2023-04-30T00:29:11.198Z,16.40
2023-04-30T00:31:39.589Z,16.70
2023-04-30T00:34:07.702Z,15.80
2023-04-30T00:39:33.637Z,15.90
2023-04-30T00:42:02.857Z,16.10
2023-04-30T00:44:30.897Z,16.50
2023-04-30T00:46:58.853Z,16.90
2023-04-30T00:49:26.960Z,17.90
2023-04-30T00:51:55.045Z,18.20
2023-04-30T00:54:24.426Z,17.60
2023-04-30T00:56:52.822Z,18.90
2023-04-30T00:59:21.293Z,17.60
2023-04-30T01:01:49.930Z,18.30
2023-04-30T01:04:18.459Z,18.40
2023-04-30T01:06:46.748Z,18.10
2023-04-30T01:09:14.971Z,18.10
2023-04-30T01:11:55.079Z,17.90
2023-04-30T01:14:50.774Z,17.60
2023-04-30T01:17:41.940Z,17.60
2023-04-30T01:20:11.451Z,17.00
2023-04-30T01:22:48.588Z,17.80
2023-04-30T01:25:38.058Z,17.00
2023-04-30T01:28:16.898Z,17.60
2023-04-30T01:30:45.727Z,16.80
2023-04-30T01:36:19.425Z,17.20
2023-04-30T01:39:10.177Z,16.00
2023-04-30T01:41:56.677Z,15.90
2023-04-30T01:44:29.793Z,16.40
2023-04-30T01:47:19.185Z,16.60
2023-04-30T01:50:11.405Z,16.20
2023-04-30T01:52:52.727Z,16.50
2023-04-30T01:55:52.641Z,15.60
2023-04-30T01:58:23.821Z,16.00
2023-04-30T02:00:52.225Z,17.20
2023-04-30T02:03:20.506Z,17.80
2023-04-30T02:05:48.896Z,16.60
2023-04-30T02:08:17.528Z,17.20
2023-04-30T02:10:45.691Z,18.80
2023-04-30T02:13:13.618Z,18.40
2023-04-30T02:15:41.680Z,19.10
2023-04-30T02:18:09.693Z,18.90
2023-04-30T02:20:38.570Z,20.70
2023-04-30T02:23:09.862Z,22.70
2023-04-30T02:25:38.706Z,22.10
2023-04-30T02:28:06.672Z,24.60
2023-04-30T02:30:34.504Z,26.10
2023-04-30T02:33:03.697Z,23.70
2023-04-30T02:35:31.732Z,23.00
2023-04-30T02:37:59.789Z,23.00
2023-04-30T02:40:28.524Z,23.10
2023-04-30T02:42:56.923Z,22.70
2023-04-30T02:45:25.053Z,22.90
2023-04-30T02:47:53.145Z,22.60
2023-04-30T02:50:21.547Z,22.10
2023-04-30T02:52:49.825Z,22.20
2023-04-30T02:55:17.819Z,22.00
2023-04-30T02:57:45.729Z,22.50
2023-04-30T03:00:14.675Z,21.20
2023-04-30T03:02:43.754Z,22.50
2023-04-30T03:05:11.863Z,22.20
2023-04-30T03:07:40.083Z,22.60
2023-04-30T03:10:09.155Z,20.50
2023-04-30T03:12:37.142Z,19.60
2023-04-30T03:15:05.752Z,20.50
2023-04-30T03:17:33.883Z,19.50
2023-04-30T03:20:01.972Z,19.30
2023-04-30T03:22:30.751Z,18.00
2023-04-30T03:24:58.713Z,18.60
2023-04-30T03:27:26.648Z,18.20
2023-04-30T03:29:54.961Z,17.60
2023-04-30T03:32:23.942Z,17.90
2023-04-30T03:34:52.110Z,18.00
2023-04-30T03:37:20.123Z,16.60
2023-04-30T03:39:48.052Z,17.00
2023-04-30T03:42:16.999Z,15.70
2023-04-30T03:44:45.024Z,15.40
2023-04-30T03:47:12.976Z,15.90
2023-04-30T03:49:41.403Z,15.70
2023-04-30T03:52:09.430Z,15.50
2023-04-30T03:54:37.728Z,16.30
2023-04-30T03:57:10.792Z,16.20
2023-04-30T03:59:38.733Z,16.90
2023-04-30T04:02:57.343Z,16.40
2023-04-30T04:05:26.560Z,16.70
2023-04-30T04:07:55.102Z,17.80
2023-04-30T04:10:23.499Z,16.10
2023-04-30T04:12:51.462Z,17.10
2023-04-30T04:15:19.580Z,17.60
2023-04-30T04:17:47.592Z,18.50
2023-04-30T04:20:16.850Z,18.20
2023-04-30T04:22:45.420Z,18.00
2023-04-30T04:25:39.423Z,17.90
2023-04-30T04:28:07.963Z,17.30
2023-04-30T04:34:38.989Z,16.90
2023-04-30T04:37:07.179Z,16.30
2023-04-30T04:39:36.719Z,14.80
2023-04-30T04:42:05.172Z,15.50
2023-04-30T04:44:33.476Z,14.60
2023-04-30T04:47:03.550Z,14.50
2023-04-30T04:49:32.162Z,15.00
2023-04-30T04:52:00.138Z,14.70
2023-04-30T04:54:28.506Z,14.70
2023-04-30T04:56:56.700Z,14.70
2023-04-30T04:59:26.927Z,16.20
2023-04-30T05:01:56.626Z,13.30
2023-04-30T05:04:24.897Z,13.20
2023-04-30T05:06:54.464Z,13.20
2023-04-30T05:09:22.648Z,13.70
2023-04-30T05:11:51.052Z,14.40
2023-04-30T05:14:18.958Z,13.60
2023-04-30T05:16:47.116Z,13.70
2023-04-30T05:19:15.192Z,14.00
2023-04-30T05:21:43.342Z,13.70
2023-04-30T05:24:17.967Z,14.80
2023-04-30T05:26:46.263Z,14.90
2023-04-30T05:29:14.320Z,15.60
2023-04-30T05:31:42.421Z,15.40
2023-04-30T05:34:10.453Z,14.90
2023-04-30T05:36:38.389Z,16.70
2023-04-30T05:39:06.428Z,16.20
2023-04-30T05:41:34.371Z,17.50
2023-04-30T05:44:02.944Z,17.90
2023-04-30T05:46:31.181Z,16.90
2023-04-30T05:48:59.112Z,17.90
2023-04-30T05:51:28.035Z,18.20
2023-04-30T05:53:57.547Z,18.70
2023-04-30T05:56:26.592Z,17.70
2023-04-30T05:58:54.563Z,18.00
2023-04-30T06:01:23.911Z,17.60
2023-04-30T06:03:52.398Z,18.20
2023-04-30T06:06:21.180Z,17.40
2023-04-30T06:08:49.171Z,17.00
2023-04-30T06:11:17.196Z,17.40
2023-04-30T06:13:47.833Z,16.70
2023-04-30T06:16:16.353Z,16.20
2023-04-30T06:18:44.724Z,16.90
2023-04-30T06:21:12.750Z,17.00
2023-04-30T06:23:40.757Z,16.50
2023-04-30T06:26:08.761Z,15.70
2023-04-30T06:28:36.691Z,14.00
2023-04-30T06:31:04.791Z,14.10
2023-04-30T06:33:32.758Z,12.60
2023-04-30T06:36:00.680Z,11.50
2023-04-30T06:38:29.174Z,11.30
2023-04-30T06:40:57.233Z,10.40
2023-04-30T06:43:25.272Z,9.80
2023-04-30T06:45:53.156Z,10.00
2023-04-30T06:48:21.069Z,10.80
2023-04-30T06:50:49.103Z,9.10
2023-04-30T06:53:17.020Z,9.40
2023-04-30T06:55:46.850Z,7.40
2023-04-30T06:58:15.798Z,7.30
2023-04-30T07:00:43.830Z,5.20
2023-04-30T07:03:11.907Z,5.00
2023-04-30T07:05:40.080Z,4.80
2023-04-30T07:08:08.010Z,5.10
2023-04-30T07:10:36.262Z,4.50
2023-04-30T07:13:04.293Z,4.20
2023-04-30T07:15:32.356Z,4.10
2023-04-30T07:18:00.476Z,3.80
2023-04-30T07:20:28.549Z,3.80
2023-04-30T07:22:56.981Z,4.10
2023-04-30T07:25:24.923Z,3.40
2023-04-30T07:27:56.476Z,3.50
2023-04-30T07:30:25.480Z,3.50
2023-04-30T07:32:53.451Z,3.40
2023-04-30T07:35:21.442Z,3.10
2023-04-30T07:37:49.482Z,3.20
2023-04-30T07:40:25.401Z,3.20
2023-04-30T07:43:03.364Z,3.10
2023-04-30T07:45:31.987Z,3.60
2023-04-30T07:48:00.028Z,3.50
2023-04-30T07:50:29.904Z,3.40
2023-04-30T07:52:58.025Z,3.10
2023-04-30T07:55:26.155Z,2.90
2023-04-30T07:57:54.135Z,3.20
2023-04-30T08:00:22.239Z,3.00
2023-04-30T08:05:19.191Z,2.60
2023-04-30T08:07:47.238Z,3.10
2023-04-30T08:10:15.795Z,2.70
2023-04-30T08:12:44.944Z,3.10
2023-04-30T08:15:12.844Z,2.30
2023-04-30T08:17:40.994Z,3.20
2023-04-30T08:20:09.590Z,2.30
2023-04-30T08:22:37.672Z,2.40
2023-04-30T08:25:07.006Z,2.90
2023-04-30T08:27:34.937Z,2.60
2023-04-30T08:30:09.914Z,2.90
2023-04-30T08:32:46.946Z,2.70
2023-04-30T08:35:21.435Z,2.80
2023-04-30T08:37:50.300Z,2.80
2023-04-30T08:40:19.279Z,2.30
2023-04-30T08:43:00.391Z,2.40
2023-04-30T08:45:28.578Z,2.90
2023-04-30T08:47:59.840Z,2.60
2023-04-30T08:50:29.410Z,1.70
2023-04-30T08:53:01.823Z,1.90
2023-04-30T08:55:30.169Z,2.40
2023-04-30T08:57:58.225Z,2.10
2023-04-30T09:00:28.659Z,1.80
2023-04-30T09:02:56.811Z,2.00
2023-04-30T09:05:24.933Z,1.40
2023-04-30T09:08:02.995Z,1.40
2023-04-30T09:10:36.268Z,1.80
2023-04-30T09:13:09.382Z,1.90
2023-04-30T09:15:41.616Z,1.60
2023-04-30T09:18:14.685Z,1.50
2023-04-30T09:21:01.924Z,1.60
2023-04-30T09:23:30.903Z,1.60
2023-04-30T09:25:58.754Z,1.70
2023-04-30T09:28:29.152Z,1.60
2023-04-30T09:30:58.178Z,1.50
2023-04-30T09:33:26.175Z,1.40
2023-04-30T09:35:54.224Z,1.50
2023-04-30T09:38:33.211Z,1.70
2023-04-30T09:41:02.148Z,2.10
2023-04-30T09:43:31.006Z,1.40
2023-04-30T09:46:00.725Z,2.00
2023-04-30T09:48:29.171Z,1.70
2023-04-30T09:50:57.738Z,1.40
2023-04-30T09:53:26.789Z,1.70
2023-04-30T09:55:59.205Z,1.80
2023-04-30T09:58:29.637Z,1.10
2023-04-30T10:01:01.134Z,1.40
2023-04-30T10:03:31.619Z,1.50
2023-04-30T10:06:01.086Z,1.90
2023-04-30T10:08:47.744Z,1.70
2023-04-30T10:11:23.698Z,1.50
2023-04-30T10:13:53.663Z,1.30
2023-04-30T10:16:28.674Z,1.20
2023-04-30T10:19:00.953Z,1.20
2023-04-30T10:21:30.002Z,1.10
2023-04-30T10:23:59.282Z,1.40
2023-04-30T10:26:29.710Z,1.60
2023-04-30T10:29:01.462Z,1.00
2023-04-30T10:31:30.825Z,1.10
2023-04-30T10:34:05.015Z,2.00
2023-04-30T10:36:38.915Z,1.20
2023-04-30T10:39:07.500Z,1.00
2023-04-30T10:41:35.709Z,1.10
2023-04-30T10:44:05.591Z,1.20
2023-04-30T10:46:37.011Z,1.40
2023-04-30T10:49:05.500Z,1.70
2023-04-30T10:51:58.666Z,1.20
2023-04-30T10:54:36.967Z,1.40
2023-04-30T10:57:17.920Z,1.40
